Eixample, Spain
Current Conditions -  °F | °C
As of 12:00 PM on Wednesday 26 Nov 2014 (Local Time) from LEBL Reporting Station
Moderate Rain Moderate Rain  
Wind Chill: 59°   Ceiling: 4000
Heat Index: 59°   Visibility: 1.8mi
Dew Point: 59°   Wind: 5mph
Humidity: 100%   Direction: 40°NE
Pressure: 29.85"   Gusts: NA
Location:  41.39°N, 2.16°E
Report Text: LEBL 261100Z 04004KT 320V090 3000 RA FEW010 BKN040TCU 15/15 Q1011 NOSIG
Loading
Personal Weather Stations






























Interactive Weather Map New forecast layout! Learn more

10-Day Weather Forecast

Advertisements
Track Severe Weather on mobile